sensor_id;sensor_type;location;lat;lon;timestamp;temperature;humidity
68922;DHT22;55959;51.244;5.724;2023-06-14T00:02:09;24.10;38.10
68922;DHT22;55959;51.244;5.724;2023-06-14T00:04:35;24.00;38.00
68922;DHT22;55959;51.244;5.724;2023-06-14T00:07:03;24.00;38.00
68922;DHT22;55959;51.244;5.724;2023-06-14T00:09:28;24.00;38.10
68922;DHT22;55959;51.244;5.724;2023-06-14T00:11:54;23.90;38.10
68922;DHT22;55959;51.244;5.724;2023-06-14T00:14:20;23.90;38.00
68922;DHT22;55959;51.244;5.724;2023-06-14T00:16:46;23.90;38.10
68922;DHT22;55959;51.244;5.724;2023-06-14T00:19:13;23.80;38.10
68922;DHT22;55959;51.244;5.724;2023-06-14T00:21:38;23.80;38.20
68922;DHT22;55959;51.244;5.724;2023-06-14T00:24:04;23.80;38.20
68922;DHT22;55959;51.244;5.724;2023-06-14T00:26:30;23.70;38.20
68922;DHT22;55959;51.244;5.724;2023-06-14T00:28:56;23.70;38.20
68922;DHT22;55959;51.244;5.724;2023-06-14T00:31:23;23.70;38.30
68922;DHT22;55959;51.244;5.724;2023-06-14T00:33:48;23.60;38.30
68922;DHT22;55959;51.244;5.724;2023-06-14T00:36:14;23.60;38.40
68922;DHT22;55959;51.244;5.724;2023-06-14T00:38:40;23.60;38.50
68922;DHT22;55959;51.244;5.724;2023-06-14T00:41:05;23.50;38.40
68922;DHT22;55959;51.244;5.724;2023-06-14T00:43:31;23.50;38.50
68922;DHT22;55959;51.244;5.724;2023-06-14T00:45:57;23.50;38.50
68922;DHT22;55959;51.244;5.724;2023-06-14T00:48:24;23.50;38.60
68922;DHT22;55959;51.244;5.724;2023-06-14T00:50:50;23.40;38.60
68922;DHT22;55959;51.244;5.724;2023-06-14T00:53:18;23.40;38.70
68922;DHT22;55959;51.244;5.724;2023-06-14T00:55:46;23.30;38.70
68922;DHT22;55959;51.244;5.724;2023-06-14T00:58:12;23.30;38.80
68922;DHT22;55959;51.244;5.724;2023-06-14T01:00:39;23.20;38.80
68922;DHT22;55959;51.244;5.724;2023-06-14T01:03:04;23.20;38.90
68922;DHT22;55959;51.244;5.724;2023-06-14T01:05:31;23.20;38.90
68922;DHT22;55959;51.244;5.724;2023-06-14T01:08:14;23.10;39.00
68922;DHT22;55959;51.244;5.724;2023-06-14T01:13:37;23.10;39.00
68922;DHT22;55959;51.244;5.724;2023-06-14T01:16:05;23.10;39.10
68922;DHT22;55959;51.244;5.724;2023-06-14T01:18:32;23.00;39.10
68922;DHT22;55959;51.244;5.724;2023-06-14T01:20:58;22.90;39.10
68922;DHT22;55959;51.244;5.724;2023-06-14T01:23:25;22.90;39.20
68922;DHT22;55959;51.244;5.724;2023-06-14T01:25:57;22.90;39.30
68922;DHT22;55959;51.244;5.724;2023-06-14T01:28:23;22.90;39.40
68922;DHT22;55959;51.244;5.724;2023-06-14T01:30:53;22.90;39.40
68922;DHT22;55959;51.244;5.724;2023-06-14T01:33:26;22.80;39.40
68922;DHT22;55959;51.244;5.724;2023-06-14T01:35:53;22.80;39.50
68922;DHT22;55959;51.244;5.724;2023-06-14T01:38:24;22.80;39.50
68922;DHT22;55959;51.244;5.724;2023-06-14T01:40:52;22.70;39.50
68922;DHT22;55959;51.244;5.724;2023-06-14T01:43:20;22.70;39.60
68922;DHT22;55959;51.244;5.724;2023-06-14T01:45:47;22.60;39.60
68922;DHT22;55959;51.244;5.724;2023-06-14T01:48:14;22.60;39.60
68922;DHT22;55959;51.244;5.724;2023-06-14T01:50:40;22.60;39.70
68922;DHT22;55959;51.244;5.724;2023-06-14T01:53:08;22.50;39.70
68922;DHT22;55959;51.244;5.724;2023-06-14T01:55:34;22.50;39.80
68922;DHT22;55959;51.244;5.724;2023-06-14T01:58:04;22.50;39.90
68922;DHT22;55959;51.244;5.724;2023-06-14T02:00:30;22.50;40.00
68922;DHT22;55959;51.244;5.724;2023-06-14T02:02:56;22.40;40.00
68922;DHT22;55959;51.244;5.724;2023-06-14T02:05:22;22.40;40.00
68922;DHT22;55959;51.244;5.724;2023-06-14T02:07:49;22.40;40.10
68922;DHT22;55959;51.244;5.724;2023-06-14T02:10:16;22.30;40.10
68922;DHT22;55959;51.244;5.724;2023-06-14T02:12:43;22.30;40.30
68922;DHT22;55959;51.244;5.724;2023-06-14T02:15:09;22.20;40.30
68922;DHT22;55959;51.244;5.724;2023-06-14T02:17:45;22.20;40.50
68922;DHT22;55959;51.244;5.724;2023-06-14T02:20:12;22.20;40.50
68922;DHT22;55959;51.244;5.724;2023-06-14T02:22:39;22.20;40.60
68922;DHT22;55959;51.244;5.724;2023-06-14T02:25:05;22.10;40.70
68922;DHT22;55959;51.244;5.724;2023-06-14T02:27:32;22.00;40.70
68922;DHT22;55959;51.244;5.724;2023-06-14T02:29:57;22.10;40.80
68922;DHT22;55959;51.244;5.724;2023-06-14T02:32:23;22.00;40.90
68922;DHT22;55959;51.244;5.724;2023-06-14T02:34:49;21.90;40.90
68922;DHT22;55959;51.244;5.724;2023-06-14T02:37:15;21.90;40.90
68922;DHT22;55959;51.244;5.724;2023-06-14T02:39:41;21.90;41.10
68922;DHT22;55959;51.244;5.724;2023-06-14T02:42:07;21.90;41.20
68922;DHT22;55959;51.244;5.724;2023-06-14T02:44:33;21.80;41.30
68922;DHT22;55959;51.244;5.724;2023-06-14T02:46:59;21.80;41.30
68922;DHT22;55959;51.244;5.724;2023-06-14T02:49:26;21.80;41.40
68922;DHT22;55959;51.244;5.724;2023-06-14T02:51:51;21.70;41.50
68922;DHT22;55959;51.244;5.724;2023-06-14T02:54:17;21.70;41.50
68922;DHT22;55959;51.244;5.724;2023-06-14T02:56:43;21.60;41.60
68922;DHT22;55959;51.244;5.724;2023-06-14T02:59:09;21.60;41.70
68922;DHT22;55959;51.244;5.724;2023-06-14T03:01:35;21.60;41.80
68922;DHT22;55959;51.244;5.724;2023-06-14T03:04:09;21.60;41.90
68922;DHT22;55959;51.244;5.724;2023-06-14T03:06:35;21.60;41.90
68922;DHT22;55959;51.244;5.724;2023-06-14T03:09:02;21.50;41.90
68922;DHT22;55959;51.244;5.724;2023-06-14T03:11:30;21.50;42.10
68922;DHT22;55959;51.244;5.724;2023-06-14T03:13:56;21.50;42.20
68922;DHT22;55959;51.244;5.724;2023-06-14T03:16:23;21.40;42.10
68922;DHT22;55959;51.244;5.724;2023-06-14T03:18:52;21.40;42.30
68922;DHT22;55959;51.244;5.724;2023-06-14T03:21:19;21.30;42.30
68922;DHT22;55959;51.244;5.724;2023-06-14T03:23:46;21.30;42.40
68922;DHT22;55959;51.244;5.724;2023-06-14T03:26:12;21.30;42.40
68922;DHT22;55959;51.244;5.724;2023-06-14T03:28:39;21.30;42.50
68922;DHT22;55959;51.244;5.724;2023-06-14T03:31:05;21.20;42.60
68922;DHT22;55959;51.244;5.724;2023-06-14T03:33:31;21.20;42.60
68922;DHT22;55959;51.244;5.724;2023-06-14T03:35:57;21.10;42.60
68922;DHT22;55959;51.244;5.724;2023-06-14T03:38:23;21.10;42.70
68922;DHT22;55959;51.244;5.724;2023-06-14T03:40:49;21.10;42.80
68922;DHT22;55959;51.244;5.724;2023-06-14T03:43:15;21.10;42.90
68922;DHT22;55959;51.244;5.724;2023-06-14T03:45:40;21.10;43.00
68922;DHT22;55959;51.244;5.724;2023-06-14T03:48:06;21.00;43.10
68922;DHT22;55959;51.244;5.724;2023-06-14T03:50:34;21.00;43.20
68922;DHT22;55959;51.244;5.724;2023-06-14T03:53:00;21.00;43.20
68922;DHT22;55959;51.244;5.724;2023-06-14T03:55:26;20.90;43.30
68922;DHT22;55959;51.244;5.724;2023-06-14T03:57:53;20.90;43.30
68922;DHT22;55959;51.244;5.724;2023-06-14T04:00:19;20.90;43.50
68922;DHT22;55959;51.244;5.724;2023-06-14T04:02:46;20.90;43.60
68922;DHT22;55959;51.244;5.724;2023-06-14T04:05:11;20.80;43.60
68922;DHT22;55959;51.244;5.724;2023-06-14T04:07:37;20.80;43.70
68922;DHT22;55959;51.244;5.724;2023-06-14T04:10:06;20.80;43.70
68922;DHT22;55959;51.244;5.724;2023-06-14T04:12:33;20.80;43.90
68922;DHT22;55959;51.244;5.724;2023-06-14T04:14:59;20.70;43.80
68922;DHT22;55959;51.244;5.724;2023-06-14T04:17:27;20.70;43.90
68922;DHT22;55959;51.244;5.724;2023-06-14T04:19:52;20.70;44.00
68922;DHT22;55959;51.244;5.724;2023-06-14T04:22:19;20.70;44.10
68922;DHT22;55959;51.244;5.724;2023-06-14T04:24:44;20.60;44.20
68922;DHT22;55959;51.244;5.724;2023-06-14T04:27:11;20.70;44.30
68922;DHT22;55959;51.244;5.724;2023-06-14T04:29:37;20.60;44.30
68922;DHT22;55959;51.244;5.724;2023-06-14T04:32:04;20.70;44.40
68922;DHT22;55959;51.244;5.724;2023-06-14T04:34:32;20.60;44.60
68922;DHT22;55959;51.244;5.724;2023-06-14T04:37:00;20.60;44.80
68922;DHT22;55959;51.244;5.724;2023-06-14T04:39:26;20.70;44.90
68922;DHT22;55959;51.244;5.724;2023-06-14T04:41:53;20.70;45.10
68922;DHT22;55959;51.244;5.724;2023-06-14T04:44:23;20.70;45.10
68922;DHT22;55959;51.244;5.724;2023-06-14T04:46:56;20.70;45.30
68922;DHT22;55959;51.244;5.724;2023-06-14T04:49:24;20.70;45.40
68922;DHT22;55959;51.244;5.724;2023-06-14T04:51:50;20.80;45.50
68922;DHT22;55959;51.244;5.724;2023-06-14T04:54:23;20.80;45.50
68922;DHT22;55959;51.244;5.724;2023-06-14T04:56:50;20.80;45.60
68922;DHT22;55959;51.244;5.724;2023-06-14T04:59:16;20.90;45.70
68922;DHT22;55959;51.244;5.724;2023-06-14T05:01:43;20.90;45.70
68922;DHT22;55959;51.244;5.724;2023-06-14T05:04:16;21.00;45.80
68922;DHT22;55959;51.244;5.724;2023-06-14T05:06:42;21.00;45.70
68922;DHT22;55959;51.244;5.724;2023-06-14T05:09:11;21.00;45.60
68922;DHT22;55959;51.244;5.724;2023-06-14T05:11:37;21.10;45.70
68922;DHT22;55959;51.244;5.724;2023-06-14T05:14:03;21.10;45.60
68922;DHT22;55959;51.244;5.724;2023-06-14T05:16:29;21.20;45.80
68922;DHT22;55959;51.244;5.724;2023-06-14T05:18:55;21.20;45.70
68922;DHT22;55959;51.244;5.724;2023-06-14T05:21:22;21.30;45.70
68922;DHT22;55959;51.244;5.724;2023-06-14T05:23:47;21.40;45.70
68922;DHT22;55959;51.244;5.724;2023-06-14T05:26:13;21.40;45.70
68922;DHT22;55959;51.244;5.724;2023-06-14T05:28:39;21.50;45.70
68922;DHT22;55959;51.244;5.724;2023-06-14T05:31:05;21.50;45.60
68922;DHT22;55959;51.244;5.724;2023-06-14T05:33:31;21.70;45.60
68922;DHT22;55959;51.244;5.724;2023-06-14T05:35:56;21.70;45.60
68922;DHT22;55959;51.244;5.724;2023-06-14T05:38:22;21.80;45.60
68922;DHT22;55959;51.244;5.724;2023-06-14T05:40:48;21.90;45.60
68922;DHT22;55959;51.244;5.724;2023-06-14T05:43:14;22.00;45.50
68922;DHT22;55959;51.244;5.724;2023-06-14T05:45:40;22.00;45.50
68922;DHT22;55959;51.244;5.724;2023-06-14T05:48:06;22.10;45.30
68922;DHT22;55959;51.244;5.724;2023-06-14T05:50:31;22.20;45.40
68922;DHT22;55959;51.244;5.724;2023-06-14T05:52:57;22.30;45.40
68922;DHT22;55959;51.244;5.724;2023-06-14T05:55:23;22.40;45.30
68922;DHT22;55959;51.244;5.724;2023-06-14T05:57:49;22.50;45.30
68922;DHT22;55959;51.244;5.724;2023-06-14T06:00:15;22.60;45.10
68922;DHT22;55959;51.244;5.724;2023-06-14T06:02:42;22.70;44.90
68922;DHT22;55959;51.244;5.724;2023-06-14T06:05:12;22.80;44.70
68922;DHT22;55959;51.244;5.724;2023-06-14T06:07:38;22.80;44.70
68922;DHT22;55959;51.244;5.724;2023-06-14T06:10:05;22.90;44.50
68922;DHT22;55959;51.244;5.724;2023-06-14T06:12:32;23.00;44.50
68922;DHT22;55959;51.244;5.724;2023-06-14T06:14:58;23.10;44.40
68922;DHT22;55959;51.244;5.724;2023-06-14T06:17:25;23.20;44.10
68922;DHT22;55959;51.244;5.724;2023-06-14T06:19:51;23.30;44.70
68922;DHT22;55959;51.244;5.724;2023-06-14T06:22:17;23.40;43.90
68922;DHT22;55959;51.244;5.724;2023-06-14T06:24:43;23.50;43.80
68922;DHT22;55959;51.244;5.724;2023-06-14T06:27:09;23.60;43.60
68922;DHT22;55959;51.244;5.724;2023-06-14T06:29:35;23.70;43.20
68922;DHT22;55959;51.244;5.724;2023-06-14T06:32:01;23.80;42.90
68922;DHT22;55959;51.244;5.724;2023-06-14T06:34:28;23.90;42.90
68922;DHT22;55959;51.244;5.724;2023-06-14T06:36:54;23.90;42.70
68922;DHT22;55959;51.244;5.724;2023-06-14T06:39:20;24.00;42.70
68922;DHT22;55959;51.244;5.724;2023-06-14T06:41:46;24.10;42.60
68922;DHT22;55959;51.244;5.724;2023-06-14T06:44:12;24.20;42.60
68922;DHT22;55959;51.244;5.724;2023-06-14T06:46:38;24.30;42.50
68922;DHT22;55959;51.244;5.724;2023-06-14T06:49:06;24.40;42.50
68922;DHT22;55959;51.244;5.724;2023-06-14T06:51:35;24.40;42.40
68922;DHT22;55959;51.244;5.724;2023-06-14T06:54:02;24.50;42.30
68922;DHT22;55959;51.244;5.724;2023-06-14T06:56:28;24.60;42.30
68922;DHT22;55959;51.244;5.724;2023-06-14T06:58:54;24.70;41.70
68922;DHT22;55959;51.244;5.724;2023-06-14T07:01:19;24.70;41.50
68922;DHT22;55959;51.244;5.724;2023-06-14T07:03:46;24.80;41.00
68922;DHT22;55959;51.244;5.724;2023-06-14T07:06:12;24.80;40.80
68922;DHT22;55959;51.244;5.724;2023-06-14T07:08:38;24.90;40.70
68922;DHT22;55959;51.244;5.724;2023-06-14T07:11:04;24.90;40.70
68922;DHT22;55959;51.244;5.724;2023-06-14T07:13:31;25.00;40.60
68922;DHT22;55959;51.244;5.724;2023-06-14T07:16:00;25.10;40.50
68922;DHT22;55959;51.244;5.724;2023-06-14T07:18:27;25.10;40.20
68922;DHT22;55959;51.244;5.724;2023-06-14T07:20:53;25.20;40.10
68922;DHT22;55959;51.244;5.724;2023-06-14T07:23:20;25.20;39.80
68922;DHT22;55959;51.244;5.724;2023-06-14T07:25:46;25.30;39.80
68922;DHT22;55959;51.244;5.724;2023-06-14T07:28:11;25.40;39.80
68922;DHT22;55959;51.244;5.724;2023-06-14T07:30:37;25.40;39.60
68922;DHT22;55959;51.244;5.724;2023-06-14T07:33:03;25.40;39.30
68922;DHT22;55959;51.244;5.724;2023-06-14T07:35:29;25.50;38.90
68922;DHT22;55959;51.244;5.724;2023-06-14T07:37:54;25.60;38.80
68922;DHT22;55959;51.244;5.724;2023-06-14T07:40:20;25.60;38.50
68922;DHT22;55959;51.244;5.724;2023-06-14T07:42:46;25.70;38.60
68922;DHT22;55959;51.244;5.724;2023-06-14T07:45:13;25.70;38.60
68922;DHT22;55959;51.244;5.724;2023-06-14T07:47:40;25.80;38.40
68922;DHT22;55959;51.244;5.724;2023-06-14T07:50:06;25.80;38.20
68922;DHT22;55959;51.244;5.724;2023-06-14T07:52:32;25.90;38.30
68922;DHT22;55959;51.244;5.724;2023-06-14T07:54:57;25.90;38.30
68922;DHT22;55959;51.244;5.724;2023-06-14T07:57:23;26.00;38.10
68922;DHT22;55959;51.244;5.724;2023-06-14T07:59:50;26.00;38.10
68922;DHT22;55959;51.244;5.724;2023-06-14T08:02:16;26.10;37.90
68922;DHT22;55959;51.244;5.724;2023-06-14T08:04:42;26.10;37.60
68922;DHT22;55959;51.244;5.724;2023-06-14T08:07:07;26.20;37.60
68922;DHT22;55959;51.244;5.724;2023-06-14T08:09:34;26.30;37.50
68922;DHT22;55959;51.244;5.724;2023-06-14T08:12:03;26.30;37.50
68922;DHT22;55959;51.244;5.724;2023-06-14T08:14:33;26.40;37.50
68922;DHT22;55959;51.244;5.724;2023-06-14T08:16:59;26.40;37.40
68922;DHT22;55959;51.244;5.724;2023-06-14T08:19:25;26.40;37.20
68922;DHT22;55959;51.244;5.724;2023-06-14T08:21:51;26.50;36.90
68922;DHT22;55959;51.244;5.724;2023-06-14T08:24:17;26.50;36.50
68922;DHT22;55959;51.244;5.724;2023-06-14T08:26:44;26.60;36.00
68922;DHT22;55959;51.244;5.724;2023-06-14T08:29:09;26.60;35.90
68922;DHT22;55959;51.244;5.724;2023-06-14T08:31:35;26.70;35.90
68922;DHT22;55959;51.244;5.724;2023-06-14T08:34:01;26.70;36.00
68922;DHT22;55959;51.244;5.724;2023-06-14T08:36:27;26.80;36.00
68922;DHT22;55959;51.244;5.724;2023-06-14T08:38:53;26.80;36.10
68922;DHT22;55959;51.244;5.724;2023-06-14T08:41:21;26.80;35.80
68922;DHT22;55959;51.244;5.724;2023-06-14T08:43:51;26.90;35.80
68922;DHT22;55959;51.244;5.724;2023-06-14T08:46:18;26.90;35.20
68922;DHT22;55959;51.244;5.724;2023-06-14T08:48:51;27.00;35.00
68922;DHT22;55959;51.244;5.724;2023-06-14T08:51:21;27.00;34.90
68922;DHT22;55959;51.244;5.724;2023-06-14T08:53:57;27.10;35.00
68922;DHT22;55959;51.244;5.724;2023-06-14T08:56:27;27.10;35.00
68922;DHT22;55959;51.244;5.724;2023-06-14T08:58:55;27.10;34.70
68922;DHT22;55959;51.244;5.724;2023-06-14T09:01:22;27.10;34.50
68922;DHT22;55959;51.244;5.724;2023-06-14T09:03:49;27.20;34.50
68922;DHT22;55959;51.244;5.724;2023-06-14T09:06:16;27.20;34.50
68922;DHT22;55959;51.244;5.724;2023-06-14T09:08:45;27.20;34.20
68922;DHT22;55959;51.244;5.724;2023-06-14T09:11:13;27.30;34.40
68922;DHT22;55959;51.244;5.724;2023-06-14T09:13:40;27.30;33.80
68922;DHT22;55959;51.244;5.724;2023-06-14T09:16:07;27.30;33.20
68922;DHT22;55959;51.244;5.724;2023-06-14T09:18:51;27.40;33.10
68922;DHT22;55959;51.244;5.724;2023-06-14T09:21:17;27.40;33.20
68922;DHT22;55959;51.244;5.724;2023-06-14T09:23:44;27.40;33.00
68922;DHT22;55959;51.244;5.724;2023-06-14T09:26:13;27.50;32.70
68922;DHT22;55959;51.244;5.724;2023-06-14T09:28:44;27.50;32.30
68922;DHT22;55959;51.244;5.724;2023-06-14T09:31:15;27.50;32.40
68922;DHT22;55959;51.244;5.724;2023-06-14T09:33:42;27.50;32.30
68922;DHT22;55959;51.244;5.724;2023-06-14T09:36:18;27.60;32.30
68922;DHT22;55959;51.244;5.724;2023-06-14T09:39:00;27.60;32.30
68922;DHT22;55959;51.244;5.724;2023-06-14T09:41:40;27.60;32.00
68922;DHT22;55959;51.244;5.724;2023-06-14T09:44:09;27.70;32.10
68922;DHT22;55959;51.244;5.724;2023-06-14T09:46:36;27.70;32.00
68922;DHT22;55959;51.244;5.724;2023-06-14T09:49:03;27.80;31.80
68922;DHT22;55959;51.244;5.724;2023-06-14T09:51:30;27.80;31.70
68922;DHT22;55959;51.244;5.724;2023-06-14T09:54:00;27.80;31.30
68922;DHT22;55959;51.244;5.724;2023-06-14T09:56:31;27.80;31.00
68922;DHT22;55959;51.244;5.724;2023-06-14T09:59:00;27.90;30.90
68922;DHT22;55959;51.244;5.724;2023-06-14T10:01:31;27.90;30.90
68922;DHT22;55959;51.244;5.724;2023-06-14T10:04:03;27.90;30.90
68922;DHT22;55959;51.244;5.724;2023-06-14T10:06:31;28.00;31.00
68922;DHT22;55959;51.244;5.724;2023-06-14T10:08:59;28.00;30.90
68922;DHT22;55959;51.244;5.724;2023-06-14T10:11:26;28.00;30.80
68922;DHT22;55959;51.244;5.724;2023-06-14T10:13:54;28.00;30.60
68922;DHT22;55959;51.244;5.724;2023-06-14T10:16:27;28.10;30.70
68922;DHT22;55959;51.244;5.724;2023-06-14T10:21:41;28.20;30.00
68922;DHT22;55959;51.244;5.724;2023-06-14T10:24:34;28.20;29.80
68922;DHT22;55959;51.244;5.724;2023-06-14T10:27:06;28.20;29.50
68922;DHT22;55959;51.244;5.724;2023-06-14T10:32:21;28.20;29.60
68922;DHT22;55959;51.244;5.724;2023-06-14T10:35:04;28.20;29.60
68922;DHT22;55959;51.244;5.724;2023-06-14T10:37:31;28.30;29.60
68922;DHT22;55959;51.244;5.724;2023-06-14T10:39:57;28.30;29.60
68922;DHT22;55959;51.244;5.724;2023-06-14T10:42:33;28.30;29.60
68922;DHT22;55959;51.244;5.724;2023-06-14T10:44:59;28.30;29.60
68922;DHT22;55959;51.244;5.724;2023-06-14T10:47:35;28.30;29.80
68922;DHT22;55959;51.244;5.724;2023-06-14T10:52:35;28.40;29.60
68922;DHT22;55959;51.244;5.724;2023-06-14T10:55:17;28.40;29.60
68922;DHT22;55959;51.244;5.724;2023-06-14T10:57:49;28.40;29.40
68922;DHT22;55959;51.244;5.724;2023-06-14T11:00:33;28.40;29.20
68922;DHT22;55959;51.244;5.724;2023-06-14T11:10:54;28.50;29.40
68922;DHT22;55959;51.244;5.724;2023-06-14T11:13:25;28.50;29.30
68922;DHT22;55959;51.244;5.724;2023-06-14T11:15:51;28.50;29.30
68922;DHT22;55959;51.244;5.724;2023-06-14T11:18:19;28.60;29.20
68922;DHT22;55959;51.244;5.724;2023-06-14T11:20:49;28.50;29.20
68922;DHT22;55959;51.244;5.724;2023-06-14T11:23:15;28.60;29.30
68922;DHT22;55959;51.244;5.724;2023-06-14T11:25:41;28.60;29.40
68922;DHT22;55959;51.244;5.724;2023-06-14T11:28:07;28.60;29.40
68922;DHT22;55959;51.244;5.724;2023-06-14T11:30:33;28.60;29.40
68922;DHT22;55959;51.244;5.724;2023-06-14T11:32:58;28.60;29.20
68922;DHT22;55959;51.244;5.724;2023-06-14T11:35:25;28.50;29.30
68922;DHT22;55959;51.244;5.724;2023-06-14T11:37:55;28.50;29.30
68922;DHT22;55959;51.244;5.724;2023-06-14T11:40:24;28.50;29.40
68922;DHT22;55959;51.244;5.724;2023-06-14T11:42:54;28.50;29.40
68922;DHT22;55959;51.244;5.724;2023-06-14T11:45:24;28.60;29.70
68922;DHT22;55959;51.244;5.724;2023-06-14T11:47:50;28.60;30.00
68922;DHT22;55959;51.244;5.724;2023-06-14T11:50:16;28.60;30.00
68922;DHT22;55959;51.244;5.724;2023-06-14T11:52:42;28.60;30.10
68922;DHT22;55959;51.244;5.724;2023-06-14T11:55:08;28.60;30.10
68922;DHT22;55959;51.244;5.724;2023-06-14T11:57:35;28.60;30.00
68922;DHT22;55959;51.244;5.724;2023-06-14T12:00:06;28.70;30.20
68922;DHT22;55959;51.244;5.724;2023-06-14T12:02:38;28.70;30.20
68922;DHT22;55959;51.244;5.724;2023-06-14T12:05:06;28.70;30.20
68922;DHT22;55959;51.244;5.724;2023-06-14T12:07:39;28.80;30.00
68922;DHT22;55959;51.244;5.724;2023-06-14T12:10:06;28.80;30.00
68922;DHT22;55959;51.244;5.724;2023-06-14T12:12:38;28.80;29.90
68922;DHT22;55959;51.244;5.724;2023-06-14T12:15:06;28.80;29.90
68922;DHT22;55959;51.244;5.724;2023-06-14T12:17:37;28.80;30.00
68922;DHT22;55959;51.244;5.724;2023-06-14T12:20:12;28.90;30.00
68922;DHT22;55959;51.244;5.724;2023-06-14T12:22:52;28.90;29.60
68922;DHT22;55959;51.244;5.724;2023-06-14T12:25:32;28.90;29.60
68922;DHT22;55959;51.244;5.724;2023-06-14T12:28:09;28.90;29.60
68922;DHT22;55959;51.244;5.724;2023-06-14T12:30:36;28.90;29.40
68922;DHT22;55959;51.244;5.724;2023-06-14T12:33:05;28.90;29.40
68922;DHT22;55959;51.244;5.724;2023-06-14T12:35:32;28.90;29.30
68922;DHT22;55959;51.244;5.724;2023-06-14T12:37:58;28.90;29.10
68922;DHT22;55959;51.244;5.724;2023-06-14T12:40:24;29.00;29.30
68922;DHT22;55959;51.244;5.724;2023-06-14T12:42:50;29.00;29.30
68922;DHT22;55959;51.244;5.724;2023-06-14T12:45:16;29.00;29.20
68922;DHT22;55959;51.244;5.724;2023-06-14T12:47:41;29.00;29.10
68922;DHT22;55959;51.244;5.724;2023-06-14T12:50:08;29.00;29.10
68922;DHT22;55959;51.244;5.724;2023-06-14T12:52:34;29.00;28.80
68922;DHT22;55959;51.244;5.724;2023-06-14T12:55:03;29.10;28.80
68922;DHT22;55959;51.244;5.724;2023-06-14T12:57:29;29.10;28.90
68922;DHT22;55959;51.244;5.724;2023-06-14T12:59:55;29.20;29.20
68922;DHT22;55959;51.244;5.724;2023-06-14T13:02:21;29.20;29.10
68922;DHT22;55959;51.244;5.724;2023-06-14T13:04:50;29.20;29.10
68922;DHT22;55959;51.244;5.724;2023-06-14T13:07:16;29.30;29.30
68922;DHT22;55959;51.244;5.724;2023-06-14T13:09:42;29.30;29.20
68922;DHT22;55959;51.244;5.724;2023-06-14T13:12:10;29.40;29.20
68922;DHT22;55959;51.244;5.724;2023-06-14T13:14:36;29.40;29.00
68922;DHT22;55959;51.244;5.724;2023-06-14T13:17:03;29.50;28.90
68922;DHT22;55959;51.244;5.724;2023-06-14T13:19:29;29.60;28.90
68922;DHT22;55959;51.244;5.724;2023-06-14T13:21:55;29.60;28.70
68922;DHT22;55959;51.244;5.724;2023-06-14T13:24:21;29.60;28.80
68922;DHT22;55959;51.244;5.724;2023-06-14T13:26:47;29.70;28.80
68922;DHT22;55959;51.244;5.724;2023-06-14T13:29:12;29.70;28.60
68922;DHT22;55959;51.244;5.724;2023-06-14T13:31:38;29.80;28.40
68922;DHT22;55959;51.244;5.724;2023-06-14T13:34:04;29.80;28.30
68922;DHT22;55959;51.244;5.724;2023-06-14T13:36:31;29.80;28.30
68922;DHT22;55959;51.244;5.724;2023-06-14T13:38:56;29.90;28.10
68922;DHT22;55959;51.244;5.724;2023-06-14T13:41:25;29.90;28.20
68922;DHT22;55959;51.244;5.724;2023-06-14T13:43:57;29.90;28.20
68922;DHT22;55959;51.244;5.724;2023-06-14T13:46:24;29.90;28.10
68922;DHT22;55959;51.244;5.724;2023-06-14T13:48:50;29.90;28.10
68922;DHT22;55959;51.244;5.724;2023-06-14T13:51:15;29.90;28.30
68922;DHT22;55959;51.244;5.724;2023-06-14T13:53:43;29.90;28.20
68922;DHT22;55959;51.244;5.724;2023-06-14T13:56:10;29.90;28.10
68922;DHT22;55959;51.244;5.724;2023-06-14T13:58:37;30.00;28.20
68922;DHT22;55959;51.244;5.724;2023-06-14T14:01:03;30.00;28.10
68922;DHT22;55959;51.244;5.724;2023-06-14T14:03:29;30.00;28.20
68922;DHT22;55959;51.244;5.724;2023-06-14T14:05:56;30.00;28.20
68922;DHT22;55959;51.244;5.724;2023-06-14T14:08:21;30.10;28.20
68922;DHT22;55959;51.244;5.724;2023-06-14T14:10:47;30.20;28.40
68922;DHT22;55959;51.244;5.724;2023-06-14T14:13:13;30.10;28.10
68922;DHT22;55959;51.244;5.724;2023-06-14T14:15:39;30.20;27.80
68922;DHT22;55959;51.244;5.724;2023-06-14T14:18:05;30.20;27.60
68922;DHT22;55959;51.244;5.724;2023-06-14T14:20:31;30.20;27.70
68922;DHT22;55959;51.244;5.724;2023-06-14T14:22:57;30.20;27.80
68922;DHT22;55959;51.244;5.724;2023-06-14T14:25:22;30.30;27.70
68922;DHT22;55959;51.244;5.724;2023-06-14T14:27:48;30.30;27.60
68922;DHT22;55959;51.244;5.724;2023-06-14T14:30:14;30.30;27.40
68922;DHT22;55959;51.244;5.724;2023-06-14T14:32:42;30.30;27.20
68922;DHT22;55959;51.244;5.724;2023-06-14T14:35:08;30.30;26.90
68922;DHT22;55959;51.244;5.724;2023-06-14T14:37:34;30.30;27.00
68922;DHT22;55959;51.244;5.724;2023-06-14T14:40:00;30.30;27.20
68922;DHT22;55959;51.244;5.724;2023-06-14T14:42:26;30.40;27.30
68922;DHT22;55959;51.244;5.724;2023-06-14T14:44:52;30.40;27.30
68922;DHT22;55959;51.244;5.724;2023-06-14T14:47:17;30.40;27.10
68922;DHT22;55959;51.244;5.724;2023-06-14T14:49:43;30.50;26.90
68922;DHT22;55959;51.244;5.724;2023-06-14T14:52:09;30.40;26.70
68922;DHT22;55959;51.244;5.724;2023-06-14T14:54:35;30.50;26.50
68922;DHT22;55959;51.244;5.724;2023-06-14T14:57:01;30.50;26.70
68922;DHT22;55959;51.244;5.724;2023-06-14T14:59:27;30.50;26.80
68922;DHT22;55959;51.244;5.724;2023-06-14T15:01:53;30.50;27.00
68922;DHT22;55959;51.244;5.724;2023-06-14T15:04:18;30.50;26.80
68922;DHT22;55959;51.244;5.724;2023-06-14T15:06:44;30.60;26.70
68922;DHT22;55959;51.244;5.724;2023-06-14T15:09:10;30.60;26.70
68922;DHT22;55959;51.244;5.724;2023-06-14T15:11:36;30.70;26.90
68922;DHT22;55959;51.244;5.724;2023-06-14T15:14:01;30.70;26.70
68922;DHT22;55959;51.244;5.724;2023-06-14T15:16:27;30.70;26.70
68922;DHT22;55959;51.244;5.724;2023-06-14T15:18:53;30.70;26.60
68922;DHT22;55959;51.244;5.724;2023-06-14T15:21:19;30.70;27.10
68922;DHT22;55959;51.244;5.724;2023-06-14T15:23:45;30.80;26.50
68922;DHT22;55959;51.244;5.724;2023-06-14T15:26:11;30.80;26.50
68922;DHT22;55959;51.244;5.724;2023-06-14T15:28:37;30.80;26.60
68922;DHT22;55959;51.244;5.724;2023-06-14T15:31:03;30.80;26.70
68922;DHT22;55959;51.244;5.724;2023-06-14T15:33:28;30.90;26.80
68922;DHT22;55959;51.244;5.724;2023-06-14T15:35:54;30.90;26.90
68922;DHT22;55959;51.244;5.724;2023-06-14T15:38:20;31.00;26.70
68922;DHT22;55959;51.244;5.724;2023-06-14T15:40:48;31.00;26.50
68922;DHT22;55959;51.244;5.724;2023-06-14T15:43:13;31.00;26.30
68922;DHT22;55959;51.244;5.724;2023-06-14T15:45:39;31.10;26.20
68922;DHT22;55959;51.244;5.724;2023-06-14T15:48:05;31.10;26.00
68922;DHT22;55959;51.244;5.724;2023-06-14T15:50:31;31.10;26.10